Turis, Spain
Current Conditions -  °F | °C
As of 2:00 PM on Friday 28 Nov 2014 (Local Time) from LEVC Reporting Station
Scattered Clouds Scattered Clouds  
Wind Chill: 64°   Ceiling: Unl
Heat Index: 64°   Visibility: 6mi
Dew Point: 55°   Wind: 13mph
Humidity: 73%   Direction: 110°ESE
Pressure: 29.21"   Gusts: NA
Location:  39.38°N, 0.7°W
Report Text: LEVC 281300Z 11011KT 080V140 9999 SCT025 18/13 Q0989 NOSIG
Loading
Personal Weather Stations






























Interactive Weather Map New forecast layout! Learn more

10-Day Weather Forecast

Advertisements
Track Severe Weather on mobile